Time;durP1;ratioP1;P1;durP2;ratioP2;P2;SDS_P1;SDS_P2;PMS_P1;PMS_P2;Temp;Humidity;BMP_temperature;BMP_pressure;BME280_temperature;BME280_humidity;BME280_pressure;Samples;Min_cycle;Max_cycle;Signal;HPM_P1;HPM_P2
2023/01/31 00:01:25;;;;;;;1.77;1.02;;;4.20;99.90;;;;;;4417829;32;20077;-59
2023/01/31 00:03:55;;;;;;;0.77;0.77;;;4.20;99.90;;;;;;4417960;32;20082;-59
2023/01/31 00:06:24;;;;;;;1.40;1.30;;;4.20;99.90;;;;;;4404488;32;20069;-59
2023/01/31 00:08:50;;;;;;;2.10;1.50;;;4.20;99.90;;;;;;4416985;32;20073;-59
2023/01/31 00:11:18;;;;;;;0.68;0.68;;;4.20;99.90;;;;;;4418652;32;20206;-58
2023/01/31 00:13:44;;;;;;;3.25;1.02;;;4.30;99.90;;;;;;4417526;32;20392;-59
2023/01/31 00:16:11;;;;;;;0.60;0.60;;;4.20;99.90;;;;;;4417981;32;20096;-60
2023/01/31 00:18:37;;;;;;;1.20;1.10;;;4.20;99.90;;;;;;4416511;32;20089;-61
2023/01/31 00:21:07;;;;;;;2.55;1.95;;;4.20;99.90;;;;;;4416691;32;20085;-61
2023/01/31 00:23:33;;;;;;;0.88;0.60;;;4.20;99.90;;;;;;4415770;32;20124;-61
2023/01/31 00:26:07;;;;;;;0.40;0.40;;;4.20;99.90;;;;;;4430826;32;20057;-60
2023/01/31 00:28:33;;;;;;;0.37;0.37;;;4.20;99.90;;;;;;4418181;32;20100;-60
2023/01/31 00:30:58;;;;;;;2.95;2.37;;;4.20;99.90;;;;;;4418102;32;20112;-60
2023/01/31 00:33:24;;;;;;;0.40;0.40;;;4.20;99.90;;;;;;4431588;32;20078;-60
2023/01/31 00:35:49;;;;;;;0.40;0.40;;;4.10;99.90;;;;;;4430048;32;20069;-61
2023/01/31 00:38:15;;;;;;;0.32;0.32;;;4.10;99.90;;;;;;4432787;32;20069;-61
2023/01/31 00:40:40;;;;;;;0.68;0.68;;;4.10;99.90;;;;;;4429978;32;20074;-60
2023/01/31 00:43:05;;;;;;;4.30;1.70;;;4.10;99.90;;;;;;4430769;32;20066;-60
2023/01/31 00:45:31;;;;;;;0.35;0.35;;;4.20;99.90;;;;;;4429572;32;20070;-60
2023/01/31 00:47:56;;;;;;;3.45;2.35;;;4.20;99.90;;;;;;4430708;32;20497;-60
2023/01/31 00:50:22;;;;;;;5.62;0.85;;;4.20;99.90;;;;;;4431855;32;21041;-61
2023/01/31 00:52:47;;;;;;;0.32;0.32;;;4.20;99.90;;;;;;4416110;32;20089;-60
2023/01/31 00:55:13;;;;;;;0.70;0.70;;;4.20;99.90;;;;;;4431430;32;20136;-61
2023/01/31 00:57:38;;;;;;;0.50;0.50;;;4.20;99.90;;;;;;4430885;32;20089;-60
2023/01/31 01:00:04;;;;;;;6.15;1.23;;;4.20;99.90;;;;;;4431338;32;20057;-60
2023/01/31 01:02:30;;;;;;;0.40;0.40;;;4.20;99.90;;;;;;4429872;32;20113;-61
2023/01/31 01:04:55;;;;;;;7.03;2.35;;;4.20;99.90;;;;;;4430801;32;20147;-60
2023/01/31 01:07:21;;;;;;;0.37;0.37;;;4.20;99.90;;;;;;4430403;32;20077;-60
2023/01/31 01:09:46;;;;;;;1.17;0.93;;;4.20;99.90;;;;;;4430877;32;20192;-61
2023/01/31 01:12:12;;;;;;;1.20;0.77;;;4.20;99.90;;;;;;4431691;32;20439;-61
2023/01/31 01:14:37;;;;;;;0.40;0.40;;;4.30;99.90;;;;;;4428847;32;20072;-59
2023/01/31 01:17:03;;;;;;;0.40;0.40;;;4.30;99.90;;;;;;4429303;32;20089;-61
2023/01/31 01:19:28;;;;;;;1.65;1.10;;;4.30;99.90;;;;;;4430228;32;20062;-61
2023/01/31 01:21:54;;;;;;;0.40;0.40;;;4.30;99.90;;;;;;4428794;32;20097;-61
2023/01/31 01:24:20;;;;;;;0.75;0.75;;;4.30;99.90;;;;;;4428622;32;20088;-61
2023/01/31 01:26:45;;;;;;;6.22;2.05;;;4.30;99.90;;;;;;4429602;32;20616;-60
2023/01/31 01:29:11;;;;;;;1.45;1.15;;;4.40;99.90;;;;;;4427706;32;20069;-61
2023/01/31 01:31:38;;;;;;;37.92;2.25;;;4.40;99.90;;;;;;4429104;32;20109;-61
2023/01/31 01:34:07;;;;;;;0.68;0.68;;;4.40;99.90;;;;;;4417221;32;20081;-60
2023/01/31 01:36:34;;;;;;;9.02;1.37;;;4.40;99.90;;;;;;4415474;32;20077;-61
2023/01/31 01:39:00;;;;;;;0.80;0.80;;;4.30;99.90;;;;;;4414887;32;20098;-61
2023/01/31 01:41:26;;;;;;;35.83;1.52;;;4.40;99.90;;;;;;4416045;32;20065;-60
2023/01/31 01:43:54;;;;;;;1.02;0.75;;;4.40;99.90;;;;;;4415655;32;20098;-61
2023/01/31 01:46:39;;;;;;;0.30;0.30;;;4.40;99.90;;;;;;4413624;32;20061;-60
2023/01/31 01:49:23;;;;;;;0.50;0.50;;;4.40;99.90;;;;;;4429858;32;20129;-61
2023/01/31 01:51:51;;;;;;;0.30;0.30;;;4.40;99.90;;;;;;4428800;32;20160;-61
2023/01/31 01:54:24;;;;;;;0.50;0.50;;;4.40;99.90;;;;;;4429081;32;20076;-61
2023/01/31 01:56:55;;;;;;;0.40;0.40;;;4.40;99.90;;;;;;4430922;32;20875;-59
2023/01/31 01:59:27;;;;;;;0.40;0.40;;;4.40;99.90;;;;;;4417511;32;20392;-60
2023/01/31 02:01:55;;;;;;;0.65;0.65;;;4.40;99.90;;;;;;4415467;32;20081;-61
2023/01/31 02:04:25;;;;;;;0.40;0.40;;;4.50;99.90;;;;;;4430963;32;20081;-60
2023/01/31 02:06:51;;;;;;;4.78;0.88;;;4.50;99.90;;;;;;4414652;32;20085;-60
2023/01/31 02:09:56;;;;;;;0.93;0.93;;;4.50;99.90;;;;;;4428940;32;20082;-61
2023/01/31 02:12:22;;;;;;;0.40;0.40;;;4.50;99.90;;;;;;4416833;32;20072;-60
2023/01/31 02:14:48;;;;;;;0.40;0.40;;;4.50;99.90;;;;;;4414106;32;20541;-60
2023/01/31 02:17:17;;;;;;;0.60;0.60;;;4.50;99.90;;;;;;4428112;32;21297;-61
2023/01/31 02:20:08;;;;;;;1.75;1.12;;;4.50;99.90;;;;;;4413734;32;20496;-59
2023/01/31 02:22:44;;;;;;;4.57;1.98;;;4.50;99.90;;;;;;4416753;32;20090;-61
2023/01/31 02:25:31;;;;;;;1.65;0.85;;;4.50;99.90;;;;;;4416081;32;20102;-60
2023/01/31 02:28:27;;;;;;;4.75;1.65;;;4.50;99.90;;;;;;4416179;32;20080;-62
2023/01/31 02:31:15;;;;;;;0.57;0.57;;;4.50;99.90;;;;;;4417462;32;20069;-61
2023/01/31 02:33:51;;;;;;;1.12;1.00;;;4.50;99.90;;;;;;4418874;32;20062;-61
2023/01/31 02:36:27;;;;;;;0.40;0.40;;;4.40;99.90;;;;;;4414458;32;20101;-61
2023/01/31 02:39:13;;;;;;;0.98;0.73;;;4.40;99.90;;;;;;4428600;32;20093;-61
2023/01/31 02:41:50;;;;;;;0.95;0.95;;;4.40;99.90;;;;;;4417208;32;20425;-61
2023/01/31 02:45:25;;;;;;;0.40;0.40;;;4.30;99.90;;;;;;4416299;32;20466;-61
2023/01/31 02:47:37;;;;;;;1.05;1.00;;;4.30;99.90;;;;;;4416781;32;20090;-61
2023/01/31 02:50:26;;;;;;;12.50;2.45;;;4.30;99.90;;;;;;4416442;32;20134;-61
2023/01/31 02:53:02;;;;;;;0.30;0.30;;;4.20;99.90;;;;;;4414487;32;20397;-60
2023/01/31 02:56:33;;;;;;;1.75;1.25;;;4.20;99.90;;;;;;4414984;32;20128;-61
2023/01/31 02:58:21;;;;;;;1.12;1.02;;;4.20;99.90;;;;;;4418279;32;20089;-60
2023/01/31 03:00:48;;;;;;;5.07;2.20;;;4.10;99.90;;;;;;4414799;32;20077;-60
2023/01/31 03:03:23;;;;;;;5.10;2.05;;;4.00;99.90;;;;;;4429124;32;20077;-61
2023/01/31 03:06:10;;;;;;;1.00;0.88;;;4.00;99.90;;;;;;4414854;32;20089;-60
2023/01/31 03:08:40;;;;;;;0.40;0.40;;;4.00;99.90;;;;;;4416570;32;20101;-61
2023/01/31 03:11:07;;;;;;;0.40;0.40;;;3.90;99.90;;;;;;4429557;32;20069;-60
2023/01/31 03:14:02;;;;;;;0.43;0.43;;;3.90;99.90;;;;;;4417617;32;20224;-61
2023/01/31 03:17:35;;;;;;;23.80;1.05;;;3.80;99.90;;;;;;4419250;32;20140;-60
2023/01/31 03:19:29;;;;;;;1.30;1.15;;;3.90;99.90;;;;;;4410673;32;20069;-61
2023/01/31 03:22:02;;;;;;;0.80;0.80;;;3.80;99.90;;;;;;4413694;32;20078;-60
2023/01/31 03:24:29;;;;;;;0.37;0.37;;;3.70;99.90;;;;;;4425253;32;20121;-60
2023/01/31 03:26:57;;;;;;;5.97;0.98;;;3.70;99.90;;;;;;4426934;32;20086;-60
2023/01/31 03:29:24;;;;;;;0.40;0.40;;;3.70;99.90;;;;;;4416830;32;20074;-60
2023/01/31 03:31:59;;;;;;;0.40;0.40;;;3.70;99.90;;;;;;4415244;32;20081;-61
2023/01/31 03:34:26;;;;;;;0.52;0.52;;;3.80;99.90;;;;;;4430102;32;20140;-60
2023/01/31 03:36:58;;;;;;;0.50;0.50;;;3.70;99.90;;;;;;4429919;32;20094;-60
2023/01/31 03:39:36;;;;;;;0.47;0.47;;;3.70;99.90;;;;;;4418283;32;20057;-61
2023/01/31 03:42:08;;;;;;;0.50;0.50;;;3.80;99.90;;;;;;4430038;32;20073;-61
2023/01/31 03:44:44;;;;;;;0.40;0.40;;;3.70;99.90;;;;;;4418396;32;20077;-60
2023/01/31 03:47:16;;;;;;;4.22;2.65;;;3.70;99.90;;;;;;4433022;32;20399;-61
2023/01/31 03:49:44;;;;;;;0.50;0.50;;;3.60;99.90;;;;;;4415902;32;20082;-60
2023/01/31 03:52:14;;;;;;;0.55;0.55;;;3.60;99.90;;;;;;4416812;32;20423;-61
2023/01/31 03:54:45;;;;;;;0.30;0.30;;;3.60;99.90;;;;;;4416974;32;20355;-61
2023/01/31 03:57:20;;;;;;;1.92;0.85;;;3.50;99.90;;;;;;4404029;32;20066;-60
2023/01/31 03:59:52;;;;;;;0.40;0.40;;;3.50;99.90;;;;;;4433166;32;20528;-61
2023/01/31 04:02:22;;;;;;;0.40;0.40;;;3.50;99.90;;;;;;4430729;32;20077;-59
2023/01/31 04:04:54;;;;;;;0.50;0.50;;;3.50;99.90;;;;;;4417879;32;20068;-60
2023/01/31 04:07:20;;;;;;;0.45;0.45;;;3.50;99.90;;;;;;4415061;32;20130;-60
2023/01/31 04:09:46;;;;;;;1.58;1.37;;;3.50;99.90;;;;;;4431019;32;20500;-60
2023/01/31 04:12:13;;;;;;;0.75;0.75;;;3.50;99.90;;;;;;4429350;32;20049;-60
2023/01/31 04:14:40;;;;;;;0.90;0.90;;;3.40;99.90;;;;;;4418598;32;20450;-60
2023/01/31 04:17:05;;;;;;;1.40;0.95;;;3.40;99.90;;;;;;4415453;32;20077;-59
2023/01/31 04:19:31;;;;;;;0.88;0.88;;;3.40;99.90;;;;;;4430895;32;20097;-60
2023/01/31 04:21:56;;;;;;;0.40;0.40;;;3.40;99.90;;;;;;4429291;32;20074;-60
2023/01/31 04:24:22;;;;;;;0.50;0.50;;;3.40;99.90;;;;;;4430230;32;20108;-60
2023/01/31 04:26:48;;;;;;;1.80;1.37;;;3.40;99.90;;;;;;4415700;32;20102;-60
2023/01/31 04:29:13;;;;;;;0.40;0.40;;;3.40;99.90;;;;;;4428469;32;20050;-60
2023/01/31 04:31:40;;;;;;;0.40;0.40;;;3.40;99.90;;;;;;4417449;32;20129;-60
2023/01/31 04:34:05;;;;;;;0.60;0.60;;;3.40;99.90;;;;;;4426219;32;20094;-61
2023/01/31 04:36:31;;;;;;;2.33;1.80;;;3.30;99.90;;;;;;4424719;32;20423;-61
2023/01/31 04:38:56;;;;;;;18.92;1.02;;;3.40;99.90;;;;;;4425246;32;20053;-62
2023/01/31 04:41:22;;;;;;;0.60;0.60;;;3.30;99.90;;;;;;4425279;32;20057;-60
2023/01/31 04:43:47;;;;;;;0.82;0.80;;;3.30;99.90;;;;;;4425605;32;20085;-61
2023/01/31 04:46:13;;;;;;;0.65;0.65;;;3.30;99.90;;;;;;4424751;32;20572;-61
2023/01/31 04:48:40;;;;;;;0.30;0.30;;;3.30;99.90;;;;;;4425974;32;20090;-61
2023/01/31 04:51:06;;;;;;;0.40;0.40;;;3.30;99.90;;;;;;4424003;32;20058;-61
2023/01/31 04:53:31;;;;;;;6.22;3.03;;;3.40;99.90;;;;;;4411076;32;20121;-61
2023/01/31 04:55:57;;;;;;;0.55;0.55;;;3.40;99.90;;;;;;4424097;32;21192;-61
2023/01/31 04:58:22;;;;;;;0.37;0.37;;;3.40;99.90;;;;;;4424044;32;20742;-61
2023/01/31 05:00:48;;;;;;;0.60;0.60;;;3.50;99.90;;;;;;4411169;32;20112;-61
2023/01/31 05:03:13;;;;;;;4.95;1.58;;;3.50;99.90;;;;;;4423936;32;20061;-60
2023/01/31 05:05:39;;;;;;;1.35;1.25;;;3.50;99.90;;;;;;4411091;32;20859;-63
2023/01/31 05:08:05;;;;;;;0.32;0.32;;;3.60;99.90;;;;;;4424047;32;20069;-61
2023/01/31 05:10:30;;;;;;;0.70;0.70;;;3.60;99.90;;;;;;4420749;32;20098;-61
2023/01/31 05:12:56;;;;;;;0.30;0.30;;;3.60;99.90;;;;;;4410011;32;20073;-60
2023/01/31 05:15:21;;;;;;;4.65;0.90;;;3.60;99.90;;;;;;4426299;32;20077;-62
2023/01/31 05:18:01;;;;;;;2.90;1.70;;;3.60;99.90;;;;;;4423631;32;20070;-62
2023/01/31 05:20:30;;;;;;;0.50;0.50;;;3.70;99.90;;;;;;4412250;32;20061;-61
2023/01/31 05:22:55;;;;;;;0.40;0.40;;;3.60;99.90;;;;;;4409598;32;20106;-61
2023/01/31 05:25:21;;;;;;;0.40;0.40;;;3.60;99.90;;;;;;4423746;32;20057;-61
2023/01/31 05:27:46;;;;;;;1.48;0.93;;;3.60;99.90;;;;;;4424424;32;20084;-61
2023/01/31 05:30:12;;;;;;;0.50;0.50;;;3.60;99.90;;;;;;4422349;32;20073;-61
2023/01/31 05:32:38;;;;;;;0.30;0.30;;;3.70;99.90;;;;;;4424315;32;20066;-61
2023/01/31 05:35:04;;;;;;;2.10;0.75;;;3.70;99.90;;;;;;4426432;32;20077;-61
2023/01/31 05:37:30;;;;;;;2.55;0.93;;;3.70;99.90;;;;;;4422709;32;20520;-62
2023/01/31 05:39:55;;;;;;;8.88;3.22;;;3.70;99.90;;;;;;4423407;32;20053;-60
2023/01/31 05:42:21;;;;;;;0.30;0.30;;;3.80;99.90;;;;;;4423850;32;20564;-61
2023/01/31 05:44:46;;;;;;;1.85;1.35;;;3.80;99.90;;;;;;4424514;32;20111;-63
2023/01/31 05:47:12;;;;;;;0.30;0.30;;;3.80;99.90;;;;;;4410750;32;20567;-61
2023/01/31 05:49:37;;;;;;;1.05;0.77;;;3.80;99.90;;;;;;4425131;32;20061;-61
2023/01/31 05:52:03;;;;;;;1.00;0.90;;;3.90;99.90;;;;;;4409979;32;20082;-60
2023/01/31 05:54:28;;;;;;;1.65;1.33;;;3.90;99.90;;;;;;4423038;32;20089;-61
2023/01/31 05:56:54;;;;;;;0.90;0.82;;;3.90;99.90;;;;;;4424897;32;20419;-61
2023/01/31 05:59:19;;;;;;;0.40;0.40;;;3.90;99.90;;;;;;4423616;32;20120;-61
2023/01/31 06:01:45;;;;;;;1.25;1.20;;;3.90;99.90;;;;;;4424006;32;20101;-61
2023/01/31 06:04:10;;;;;;;0.50;0.50;;;3.90;99.90;;;;;;4423947;32;20049;-61
2023/01/31 06:06:36;;;;;;;0.60;0.60;;;3.90;99.90;;;;;;4409530;32;20064;-61
2023/01/31 06:09:01;;;;;;;2.85;1.10;;;4.00;99.90;;;;;;4426106;32;20085;-61
2023/01/31 06:11:27;;;;;;;0.88;0.85;;;4.00;99.90;;;;;;4422842;32;20085;-61
2023/01/31 06:13:56;;;;;;;0.52;0.52;;;4.00;99.90;;;;;;4423164;32;20126;-62
2023/01/31 06:16:22;;;;;;;0.68;0.68;;;4.00;99.90;;;;;;4424009;32;20134;-60
2023/01/31 06:18:47;;;;;;;0.50;0.50;;;4.00;99.90;;;;;;4422311;32;20303;-61
2023/01/31 06:21:15;;;;;;;0.55;0.55;;;4.00;99.90;;;;;;4422318;32;20069;-61
2023/01/31 06:23:44;;;;;;;3.03;1.12;;;4.00;99.90;;;;;;4421823;32;20164;-61
2023/01/31 06:26:10;;;;;;;0.52;0.52;;;4.00;99.90;;;;;;4409272;32;20061;-61
2023/01/31 06:28:36;;;;;;;1.65;0.85;;;4.10;99.90;;;;;;4425138;32;20068;-61
2023/01/31 06:31:10;;;;;;;2.05;0.82;;;4.10;99.90;;;;;;4409004;32;20198;-61
2023/01/31 06:33:35;;;;;;;14.75;1.77;;;4.10;99.90;;;;;;4409197;32;20452;-62
2023/01/31 06:36:01;;;;;;;0.60;0.60;;;4.10;99.90;;;;;;4423651;32;20057;-60
2023/01/31 06:38:28;;;;;;;1.85;0.57;;;4.10;99.90;;;;;;4411151;32;20407;-60
2023/01/31 06:40:53;;;;;;;0.40;0.40;;;4.20;99.90;;;;;;4423049;32;20061;-61
2023/01/31 06:43:19;;;;;;;0.65;0.65;;;4.20;99.90;;;;;;4423701;32;20069;-60
2023/01/31 06:45:44;;;;;;;0.40;0.40;;;4.20;99.90;;;;;;4423481;32;20124;-61
2023/01/31 06:48:11;;;;;;;1.35;1.25;;;4.20;99.90;;;;;;4410610;32;20224;-60
2023/01/31 06:50:36;;;;;;;1.15;1.05;;;4.20;99.90;;;;;;4409520;32;20073;-60
2023/01/31 06:53:02;;;;;;;4.25;1.42;;;4.10;99.90;;;;;;4423667;32;20066;-60
2023/01/31 06:55:28;;;;;;;2.05;0.95;;;4.10;99.90;;;;;;4421603;32;20460;-62
2023/01/31 06:57:54;;;;;;;0.40;0.40;;;4.10;99.90;;;;;;4424082;32;20061;-61
2023/01/31 07:00:21;;;;;;;0.57;0.57;;;4.10;99.90;;;;;;4423616;32;20393;-60
2023/01/31 07:02:47;;;;;;;0.40;0.40;;;4.10;99.90;;;;;;4409326;32;20093;-61
2023/01/31 07:05:13;;;;;;;0.40;0.40;;;4.10;99.90;;;;;;4408834;32;20524;-61
2023/01/31 07:07:39;;;;;;;2.83;1.25;;;4.10;99.90;;;;;;4409331;32;20524;-61
2023/01/31 07:10:05;;;;;;;3.83;1.20;;;4.10;99.90;;;;;;4424016;32;20064;-61
2023/01/31 07:12:31;;;;;;;0.40;0.40;;;4.10;99.90;;;;;;4423592;32;20439;-61
2023/01/31 07:14:56;;;;;;;0.50;0.50;;;4.10;99.90;;;;;;4423441;32;20089;-61
2023/01/31 07:17:22;;;;;;;1.35;0.73;;;4.10;99.90;;;;;;4422930;32;20053;-61
2023/01/31 07:19:47;;;;;;;0.40;0.40;;;4.10;99.90;;;;;;4423776;32;20088;-61
2023/01/31 07:22:13;;;;;;;0.40;0.40;;;4.10;99.90;;;;;;4423972;32;20637;-61
2023/01/31 07:24:38;;;;;;;0.50;0.50;;;4.10;99.90;;;;;;4422374;32;20088;-59
2023/01/31 07:27:04;;;;;;;0.40;0.40;;;4.10;99.90;;;;;;4424653;32;20057;-62
2023/01/31 07:29:29;;;;;;;0.85;0.82;;;4.10;99.90;;;;;;4409988;32;20073;-61
2023/01/31 07:31:55;;;;;;;0.30;0.30;;;4.10;99.90;;;;;;4424075;32;20070;-61
2023/01/31 07:34:21;;;;;;;1.35;1.15;;;4.10;99.90;;;;;;4408141;32;20517;-61
2023/01/31 07:36:49;;;;;;;0.40;0.40;;;4.10;99.90;;;;;;4421170;32;20069;-61
2023/01/31 07:39:14;;;;;;;0.47;0.47;;;4.10;99.90;;;;;;4423090;32;20090;-62
2023/01/31 07:41:40;;;;;;;2.08;0.80;;;4.20;99.90;;;;;;4422829;32;20588;-62
2023/01/31 07:44:07;;;;;;;2.50;1.37;;;4.20;99.90;;;;;;4423655;32;20520;-59
2023/01/31 07:46:33;;;;;;;0.40;0.40;;;4.20;99.90;;;;;;4422143;32;20523;-60
2023/01/31 07:48:59;;;;;;;1.30;0.62;;;4.20;99.90;;;;;;4424235;32;20229;-60
2023/01/31 07:51:24;;;;;;;0.85;0.60;;;4.20;99.90;;;;;;4422694;32;20108;-60
2023/01/31 07:53:50;;;;;;;1.37;1.27;;;4.30;99.90;;;;;;4423324;32;20061;-61
2023/01/31 07:56:17;;;;;;;0.43;0.43;;;4.30;99.90;;;;;;4420921;32;20466;-60
2023/01/31 07:58:46;;;;;;;0.40;0.40;;;4.30;99.90;;;;;;4409019;32;20093;-60
2023/01/31 08:03:32;;;;;;;0.70;0.70;;;4.30;99.90;;;;;;4408636;32;20166;-61
2023/01/31 08:04:04;;;;;;;11.98;2.92;;;4.40;99.90;;;;;;4411378;32;20505;-61
2023/01/31 08:06:30;;;;;;;0.65;0.55;;;4.40;99.90;;;;;;4424782;32;20085;-61
2023/01/31 08:08:57;;;;;;;0.52;0.52;;;4.40;99.90;;;;;;4408651;32;20061;-60
2023/01/31 08:11:22;;;;;;;0.55;0.55;;;4.40;99.90;;;;;;4410726;32;20070;-60
2023/01/31 08:13:48;;;;;;;1.95;0.95;;;4.40;99.90;;;;;;4425794;32;20438;-62
2023/01/31 08:16:14;;;;;;;0.43;0.43;;;4.40;99.90;;;;;;4425601;32;20069;-60
2023/01/31 08:18:39;;;;;;;0.32;0.32;;;4.40;99.90;;;;;;4410167;32;20069;-61
2023/01/31 08:21:06;;;;;;;0.30;0.30;;;4.40;99.90;;;;;;4424517;32;20081;-60
2023/01/31 08:23:33;;;;;;;0.60;0.60;;;4.40;99.90;;;;;;4424468;32;20069;-61
2023/01/31 08:26:00;;;;;;;1.20;1.02;;;4.40;99.90;;;;;;4412658;32;20116;-61
2023/01/31 08:28:26;;;;;;;0.57;0.50;;;4.40;99.90;;;;;;4424864;32;20455;-60
2023/01/31 08:30:51;;;;;;;0.40;0.40;;;4.30;99.90;;;;;;4425201;32;20093;-60
2023/01/31 08:33:17;;;;;;;0.40;0.40;;;4.30;99.90;;;;;;4424805;32;20137;-61
2023/01/31 08:35:42;;;;;;;0.68;0.68;;;4.30;99.90;;;;;;4425055;32;20544;-61
2023/01/31 08:38:08;;;;;;;9.55;1.27;;;4.30;99.90;;;;;;4423082;32;20089;-59
2023/01/31 08:40:33;;;;;;;0.40;0.40;;;4.30;99.90;;;;;;4424845;32;20108;-61
2023/01/31 08:42:59;;;;;;;0.40;0.40;;;4.40;99.90;;;;;;4425879;32;20089;-60
2023/01/31 08:45:26;;;;;;;0.77;0.70;;;4.40;99.90;;;;;;4409541;32;20130;-60
2023/01/31 08:47:54;;;;;;;0.47;0.47;;;4.40;99.90;;;;;;4425379;32;20121;-60
2023/01/31 08:50:20;;;;;;;4.30;1.70;;;4.50;99.90;;;;;;4410279;32;20660;-62
2023/01/31 08:52:45;;;;;;;1.60;0.95;;;4.50;99.90;;;;;;4411854;32;20088;-61
2023/01/31 08:55:12;;;;;;;0.43;0.43;;;4.50;99.90;;;;;;4423564;32;20073;-60
2023/01/31 08:57:39;;;;;;;0.40;0.40;;;4.60;99.90;;;;;;4423597;32;20097;-60
2023/01/31 09:00:06;;;;;;;10.60;1.08;;;4.60;99.90;;;;;;4409546;32;20066;-60
2023/01/31 09:02:31;;;;;;;0.88;0.88;;;4.60;99.90;;;;;;4425374;32;20108;-63
2023/01/31 09:04:57;;;;;;;0.43;0.43;;;4.60;99.90;;;;;;4424819;32;20493;-60
2023/01/31 09:07:22;;;;;;;0.40;0.40;;;4.60;99.90;;;;;;4423464;32;20092;-61
2023/01/31 09:09:48;;;;;;;0.40;0.40;;;4.60;99.90;;;;;;4410543;32;20524;-61
2023/01/31 09:12:13;;;;;;;0.80;0.80;;;4.60;99.90;;;;;;4423711;32;20144;-60
2023/01/31 09:14:39;;;;;;;3.83;1.85;;;4.70;99.90;;;;;;4425134;32;20187;-62
2023/01/31 09:17:06;;;;;;;0.30;0.30;;;4.60;99.90;;;;;;4420536;32;20559;-61
2023/01/31 09:19:32;;;;;;;0.30;0.30;;;4.70;99.90;;;;;;4422165;32;20593;-60
2023/01/31 09:21:57;;;;;;;4.20;2.30;;;4.70;99.90;;;;;;4421447;32;20066;-58
2023/01/31 09:24:23;;;;;;;2.00;1.15;;;4.70;99.90;;;;;;4409004;32;20524;-61
2023/01/31 09:26:48;;;;;;;1.37;1.08;;;4.80;99.90;;;;;;4424037;32;20112;-60
2023/01/31 09:29:14;;;;;;;5.80;1.37;;;4.80;99.90;;;;;;4425476;32;20584;-61
2023/01/31 09:31:39;;;;;;;0.80;0.80;;;4.80;99.90;;;;;;4423682;32;20085;-64
2023/01/31 09:34:05;;;;;;;11.95;1.87;;;4.80;99.90;;;;;;4420481;32;20112;-60
2023/01/31 09:36:30;;;;;;;2.40;1.48;;;4.90;99.90;;;;;;4424279;32;20081;-61
2023/01/31 09:38:56;;;;;;;1.58;0.98;;;4.90;99.90;;;;;;4424592;32;20833;-60
2023/01/31 09:41:44;;;;;;;0.32;0.32;;;4.90;99.90;;;;;;4409135;32;20102;-61
2023/01/31 09:44:17;;;;;;;0.30;0.30;;;4.90;99.90;;;;;;4410322;32;20169;-60
2023/01/31 09:46:48;;;;;;;0.65;0.65;;;5.00;99.90;;;;;;4410741;32;20061;-61
2023/01/31 09:49:19;;;;;;;0.40;0.40;;;5.00;99.90;;;;;;4425052;32;20081;-61
2023/01/31 09:51:48;;;;;;;0.65;0.65;;;5.10;99.90;;;;;;4409615;32;20066;-62
2023/01/31 09:54:22;;;;;;;0.60;0.60;;;5.10;99.90;;;;;;4425157;32;20136;-61
2023/01/31 09:56:59;;;;;;;1.55;1.12;;;5.10;99.90;;;;;;4412263;32;20552;-60
2023/01/31 09:59:38;;;;;;;0.30;0.30;;;5.10;99.90;;;;;;4423809;32;20564;-61
2023/01/31 10:02:28;;;;;;;0.40;0.40;;;5.20;99.90;;;;;;4410064;32;20074;-60
2023/01/31 10:05:25;;;;;;;0.60;0.60;;;5.10;99.90;;;;;;4414313;32;20828;-60
2023/01/31 10:08:03;;;;;;;43.50;1.95;;;5.20;99.90;;;;;;4413234;32;20568;-60
2023/01/31 10:10:37;;;;;;;3.17;1.40;;;5.20;99.90;;;;;;4410687;32;20064;-61
2023/01/31 10:13:11;;;;;;;1.00;1.00;;;5.30;99.90;;;;;;4422174;32;21066;-60
2023/01/31 10:15:43;;;;;;;1.67;0.82;;;5.30;99.90;;;;;;4411826;32;20956;-60
2023/01/31 10:18:15;;;;;;;1.27;1.17;;;5.40;99.90;;;;;;4424988;32;20060;-60
2023/01/31 10:20:52;;;;;;;0.57;0.57;;;5.40;99.90;;;;;;4423292;32;20097;-61
2023/01/31 10:23:47;;;;;;;2.30;1.25;;;5.40;99.90;;;;;;4410623;32;20077;-61
2023/01/31 10:26:18;;;;;;;4.37;1.08;;;5.40;99.90;;;;;;4422623;32;20594;-61
2023/01/31 10:29:08;;;;;;;0.40;0.40;;;5.50;99.90;;;;;;4423456;32;20065;-61
2023/01/31 10:31:42;;;;;;;1.65;1.52;;;5.50;99.90;;;;;;4413214;32;20077;-60
2023/01/31 10:34:16;;;;;;;2.90;0.98;;;5.40;99.90;;;;;;4409981;32;20065;-60
2023/01/31 10:36:51;;;;;;;0.52;0.52;;;5.30;99.90;;;;;;4409367;32;20095;-60
2023/01/31 10:39:26;;;;;;;0.40;0.40;;;5.30;99.90;;;;;;4423586;32;20127;-60
2023/01/31 10:42:07;;;;;;;1.12;0.60;;;5.20;99.90;;;;;;4422884;32;20069;-60
2023/01/31 10:44:43;;;;;;;0.40;0.40;;;5.30;99.90;;;;;;4409925;32;20078;-61
2023/01/31 10:47:15;;;;;;;0.70;0.70;;;5.30;99.90;;;;;;4410136;32;20079;-61
2023/01/31 10:49:45;;;;;;;0.95;0.95;;;5.40;99.90;;;;;;4396343;32;20852;-61
2023/01/31 10:52:40;;;;;;;4.37;1.85;;;5.40;99.90;;;;;;4410218;32;20085;-60
2023/01/31 10:55:42;;;;;;;0.40;0.40;;;5.50;99.90;;;;;;4421579;32;20069;-61
2023/01/31 10:58:13;;;;;;;0.50;0.50;;;5.50;99.90;;;;;;4412035;32;20069;-60
2023/01/31 11:00:38;;;;;;;0.75;0.70;;;5.50;99.90;;;;;;4408904;32;20136;-60
2023/01/31 11:03:04;;;;;;;5.47;0.88;;;5.50;99.90;;;;;;4421676;32;20505;-60
2023/01/31 11:05:30;;;;;;;0.43;0.43;;;5.60;99.90;;;;;;4424302;32;20168;-60
2023/01/31 11:07:59;;;;;;;13.62;1.80;;;5.60;99.90;;;;;;4421391;32;20133;-61
2023/01/31 11:10:29;;;;;;;16.45;1.00;;;5.60;99.90;;;;;;4410593;32;20080;-60
2023/01/31 11:13:00;;;;;;;3.97;2.28;;;5.70;99.90;;;;;;4397230;32;20053;-60
2023/01/31 11:15:29;;;;;;;0.47;0.45;;;5.70;99.90;;;;;;4410178;32;20062;-59
2023/01/31 11:17:59;;;;;;;3.25;1.27;;;5.70;99.90;;;;;;4411234;32;20049;-60
2023/01/31 11:20:31;;;;;;;0.47;0.47;;;5.70;99.90;;;;;;4424589;32;20058;-60
2023/01/31 11:22:58;;;;;;;0.80;0.80;;;5.70;99.90;;;;;;4397958;32;20510;-59
2023/01/31 11:25:25;;;;;;;1.45;1.35;;;5.70;99.90;;;;;;4410414;32;20585;-60
2023/01/31 11:27:55;;;;;;;0.30;0.30;;;5.70;99.90;;;;;;4409478;32;20057;-59
2023/01/31 11:30:27;;;;;;;3.40;1.47;;;5.60;99.90;;;;;;4422947;32;20231;-60
2023/01/31 11:32:54;;;;;;;5.60;1.73;;;5.60;99.90;;;;;;4408034;32;20935;-59
2023/01/31 11:35:24;;;;;;;0.40;0.40;;;5.60;99.90;;;;;;4425546;32;20132;-60
2023/01/31 11:38:00;;;;;;;1.40;1.30;;;5.60;99.90;;;;;;4424684;32;20086;-60
2023/01/31 11:40:29;;;;;;;2.60;1.30;;;5.70;99.90;;;;;;4408332;32;20500;-60
2023/01/31 11:42:57;;;;;;;4.10;0.77;;;5.70;99.90;;;;;;4422517;32;80605;-60
2023/01/31 11:45:27;;;;;;;0.50;0.50;;;5.70;99.90;;;;;;4411494;32;20747;-61
2023/01/31 11:47:55;;;;;;;2.43;1.40;;;5.70;99.90;;;;;;4411786;32;20158;-61
2023/01/31 11:50:24;;;;;;;0.60;0.60;;;5.70;99.90;;;;;;4409655;32;20089;-60
2023/01/31 11:52:55;;;;;;;3.05;0.45;;;5.60;99.90;;;;;;4409242;32;20093;-59
2023/01/31 11:55:21;;;;;;;19.27;1.05;;;5.60;99.90;;;;;;4410734;32;20494;-61
2023/01/31 11:57:53;;;;;;;0.60;0.60;;;5.70;99.90;;;;;;4426708;32;20073;-60
2023/01/31 12:00:25;;;;;;;1.65;1.05;;;5.70;99.90;;;;;;4425564;32;20081;-60
2023/01/31 12:03:13;;;;;;;0.43;0.43;;;5.70;99.90;;;;;;4410696;32;20592;-59
2023/01/31 12:05:45;;;;;;;5.40;1.77;;;5.70;99.90;;;;;;4400212;32;20086;-61
2023/01/31 12:08:34;;;;;;;0.40;0.40;;;5.70;99.90;;;;;;4423851;32;20599;-59
2023/01/31 12:11:19;;;;;;;0.35;0.35;;;5.70;99.90;;;;;;4413052;32;20517;-60
2023/01/31 12:13:48;;;;;;;1.00;0.98;;;5.70;99.90;;;;;;4411699;32;20077;-60
2023/01/31 12:16:18;;;;;;;0.47;0.47;;;5.60;99.90;;;;;;4411335;32;20492;-60
2023/01/31 12:19:09;;;;;;;0.83;0.83;;;5.60;99.90;;;;;;4426784;32;20085;-60
2023/01/31 12:22:02;;;;;;;5.78;3.03;;;5.50;99.90;;;;;;4411272;32;20124;-61
2023/01/31 12:24:43;;;;;;;0.85;0.85;;;5.40;99.90;;;;;;4420706;32;21276;-60
2023/01/31 12:27:20;;;;;;;0.70;0.70;;;5.30;99.90;;;;;;4423534;32;20147;-62
2023/01/31 12:30:14;;;;;;;0.90;0.75;;;5.30;99.90;;;;;;4408668;32;20110;-60
2023/01/31 12:33:19;;;;;;;12.30;2.05;;;5.30;99.90;;;;;;4423995;32;20050;-60
2023/01/31 12:36:22;;;;;;;0.82;0.77;;;5.20;99.90;;;;;;4412338;32;20124;-60
2023/01/31 12:39:03;;;;;;;2.28;1.02;;;5.20;99.90;;;;;;4411919;32;20143;-60
2023/01/31 12:41:33;;;;;;;0.70;0.70;;;5.10;99.90;;;;;;4424315;32;20082;-62
2023/01/31 12:44:26;;;;;;;0.47;0.47;;;5.10;99.90;;;;;;4409848;32;20537;-60
2023/01/31 12:47:06;;;;;;;0.40;0.40;;;5.10;99.90;;;;;;4412715;32;20069;-62
2023/01/31 12:50:01;;;;;;;1.10;0.88;;;5.10;99.90;;;;;;4423020;32;20237;-60
2023/01/31 12:52:51;;;;;;;6.03;1.62;;;5.00;99.90;;;;;;4411164;32;20551;-60
2023/01/31 12:55:31;;;;;;;0.47;0.47;;;5.00;99.90;;;;;;4412172;32;20474;-60
2023/01/31 12:58:27;;;;;;;0.43;0.43;;;5.00;99.90;;;;;;4410242;32;20077;-60
2023/01/31 13:01:16;;;;;;;0.40;0.40;;;4.90;99.90;;;;;;4409640;32;20101;-60
2023/01/31 13:03:52;;;;;;;0.30;0.30;;;5.00;99.90;;;;;;4413672;32;20057;-62
2023/01/31 13:06:25;;;;;;;12.73;1.45;;;4.90;99.90;;;;;;4422374;32;20552;-60
2023/01/31 13:08:55;;;;;;;0.50;0.50;;;4.90;99.90;;;;;;4410493;32;20058;-61
2023/01/31 13:11:28;;;;;;;0.88;0.88;;;4.80;99.90;;;;;;4424616;32;20093;-60
2023/01/31 13:13:59;;;;;;;1.95;1.12;;;4.80;99.90;;;;;;4425210;32;20069;-60
2023/01/31 13:16:29;;;;;;;2.10;1.30;;;4.80;99.90;;;;;;4425116;32;20632;-60